sensor_id;sensor_type;location;lat;lon;timestamp;temperature;humidity
14097;DHT22;7125;48.106;11.544;2023-09-19T00:00:59;16.10;99.90
14097;DHT22;7125;48.106;11.544;2023-09-19T00:03:26;16.10;99.90
14097;DHT22;7125;48.106;11.544;2023-09-19T00:05:55;16.10;99.90
14097;DHT22;7125;48.106;11.544;2023-09-19T00:08:25;16.00;99.90
14097;DHT22;7125;48.106;11.544;2023-09-19T00:10:54;16.00;99.90
14097;DHT22;7125;48.106;11.544;2023-09-19T00:13:22;16.00;99.90
14097;DHT22;7125;48.106;11.544;2023-09-19T00:15:50;16.00;99.90
14097;DHT22;7125;48.106;11.544;2023-09-19T00:18:18;16.00;99.90
14097;DHT22;7125;48.106;11.544;2023-09-19T00:20:46;16.00;99.90
14097;DHT22;7125;48.106;11.544;2023-09-19T00:23:17;16.00;99.90
14097;DHT22;7125;48.106;11.544;2023-09-19T00:25:44;16.00;99.90
14097;DHT22;7125;48.106;11.544;2023-09-19T00:28:11;16.00;99.90
14097;DHT22;7125;48.106;11.544;2023-09-19T00:30:38;16.00;99.90
14097;DHT22;7125;48.106;11.544;2023-09-19T00:33:05;16.00;99.90
14097;DHT22;7125;48.106;11.544;2023-09-19T00:35:33;16.00;99.90
14097;DHT22;7125;48.106;11.544;2023-09-19T00:38:02;16.00;99.90
14097;DHT22;7125;48.106;11.544;2023-09-19T00:40:31;16.00;99.90
14097;DHT22;7125;48.106;11.544;2023-09-19T00:42:58;15.90;99.90
14097;DHT22;7125;48.106;11.544;2023-09-19T00:45:29;15.90;99.90
14097;DHT22;7125;48.106;11.544;2023-09-19T00:47:56;15.90;99.90
14097;DHT22;7125;48.106;11.544;2023-09-19T00:50:25;15.90;99.90
14097;DHT22;7125;48.106;11.544;2023-09-19T00:52:56;15.90;99.90
14097;DHT22;7125;48.106;11.544;2023-09-19T00:55:25;15.90;99.90
14097;DHT22;7125;48.106;11.544;2023-09-19T00:57:55;15.90;99.90
14097;DHT22;7125;48.106;11.544;2023-09-19T01:00:24;15.80;99.90
14097;DHT22;7125;48.106;11.544;2023-09-19T01:02:51;15.80;99.90
14097;DHT22;7125;48.106;11.544;2023-09-19T01:05:18;15.80;99.90
14097;DHT22;7125;48.106;11.544;2023-09-19T01:07:46;15.80;99.90
14097;DHT22;7125;48.106;11.544;2023-09-19T01:10:17;15.80;99.90
14097;DHT22;7125;48.106;11.544;2023-09-19T01:12:52;15.80;99.90
14097;DHT22;7125;48.106;11.544;2023-09-19T01:15:32;15.80;99.90
14097;DHT22;7125;48.106;11.544;2023-09-19T01:18:23;15.70;99.90
14097;DHT22;7125;48.106;11.544;2023-09-19T01:20:57;15.70;99.90
14097;DHT22;7125;48.106;11.544;2023-09-19T01:23:52;15.70;99.90
14097;DHT22;7125;48.106;11.544;2023-09-19T01:26:51;15.60;99.90
14097;DHT22;7125;48.106;11.544;2023-09-19T01:29:33;15.70;99.90
14097;DHT22;7125;48.106;11.544;2023-09-19T01:32:08;15.70;99.90
14097;DHT22;7125;48.106;11.544;2023-09-19T01:34:48;15.70;99.90
14097;DHT22;7125;48.106;11.544;2023-09-19T01:37:16;15.60;99.90
14097;DHT22;7125;48.106;11.544;2023-09-19T01:39:47;15.70;99.90
14097;DHT22;7125;48.106;11.544;2023-09-19T01:42:24;15.70;99.90
14097;DHT22;7125;48.106;11.544;2023-09-19T01:45:02;15.60;99.90
14097;DHT22;7125;48.106;11.544;2023-09-19T01:47:35;15.70;99.90
14097;DHT22;7125;48.106;11.544;2023-09-19T01:50:15;15.70;99.90
14097;DHT22;7125;48.106;11.544;2023-09-19T01:52:57;15.70;99.90
14097;DHT22;7125;48.106;11.544;2023-09-19T01:55:28;15.70;99.90
14097;DHT22;7125;48.106;11.544;2023-09-19T01:58:06;15.70;99.90
14097;DHT22;7125;48.106;11.544;2023-09-19T02:00:36;15.70;99.90
14097;DHT22;7125;48.106;11.544;2023-09-19T02:03:06;15.70;99.90
14097;DHT22;7125;48.106;11.544;2023-09-19T02:05:34;15.70;99.90
14097;DHT22;7125;48.106;11.544;2023-09-19T02:08:01;15.70;99.90
14097;DHT22;7125;48.106;11.544;2023-09-19T02:10:29;15.70;99.90
14097;DHT22;7125;48.106;11.544;2023-09-19T02:12:58;15.70;99.90
14097;DHT22;7125;48.106;11.544;2023-09-19T02:15:26;15.70;99.90
14097;DHT22;7125;48.106;11.544;2023-09-19T02:17:54;15.70;99.90
14097;DHT22;7125;48.106;11.544;2023-09-19T02:20:23;15.80;99.90
14097;DHT22;7125;48.106;11.544;2023-09-19T02:22:51;15.70;99.90
14097;DHT22;7125;48.106;11.544;2023-09-19T02:25:19;15.80;99.90
14097;DHT22;7125;48.106;11.544;2023-09-19T02:27:46;15.80;99.90
14097;DHT22;7125;48.106;11.544;2023-09-19T02:30:13;15.70;99.90
14097;DHT22;7125;48.106;11.544;2023-09-19T02:32:46;15.80;99.90
14097;DHT22;7125;48.106;11.544;2023-09-19T02:35:16;15.80;99.90
14097;DHT22;7125;48.106;11.544;2023-09-19T02:37:46;15.80;99.90
14097;DHT22;7125;48.106;11.544;2023-09-19T02:40:15;15.80;99.90
14097;DHT22;7125;48.106;11.544;2023-09-19T02:42:45;15.70;99.90
14097;DHT22;7125;48.106;11.544;2023-09-19T02:45:15;15.70;99.90
14097;DHT22;7125;48.106;11.544;2023-09-19T02:47:43;15.80;99.90
14097;DHT22;7125;48.106;11.544;2023-09-19T02:50:12;15.70;99.90
14097;DHT22;7125;48.106;11.544;2023-09-19T02:52:41;15.70;99.90
14097;DHT22;7125;48.106;11.544;2023-09-19T02:55:12;15.70;99.90
14097;DHT22;7125;48.106;11.544;2023-09-19T02:57:40;15.70;99.90
14097;DHT22;7125;48.106;11.544;2023-09-19T03:00:10;15.60;99.90
14097;DHT22;7125;48.106;11.544;2023-09-19T03:02:38;15.60;99.90
14097;DHT22;7125;48.106;11.544;2023-09-19T03:05:07;15.60;99.90
14097;DHT22;7125;48.106;11.544;2023-09-19T03:07:37;15.60;99.90
14097;DHT22;7125;48.106;11.544;2023-09-19T03:10:05;15.60;99.90
14097;DHT22;7125;48.106;11.544;2023-09-19T03:12:35;15.60;99.90
14097;DHT22;7125;48.106;11.544;2023-09-19T03:15:03;15.60;99.90
14097;DHT22;7125;48.106;11.544;2023-09-19T03:17:31;15.60;99.90
14097;DHT22;7125;48.106;11.544;2023-09-19T03:19:59;15.60;99.90
14097;DHT22;7125;48.106;11.544;2023-09-19T03:22:26;15.50;99.90
14097;DHT22;7125;48.106;11.544;2023-09-19T03:24:54;15.60;99.90
14097;DHT22;7125;48.106;11.544;2023-09-19T03:27:21;15.60;99.90
14097;DHT22;7125;48.106;11.544;2023-09-19T03:29:50;15.60;99.90
14097;DHT22;7125;48.106;11.544;2023-09-19T03:32:18;15.60;99.90
14097;DHT22;7125;48.106;11.544;2023-09-19T03:34:46;15.60;99.90
14097;DHT22;7125;48.106;11.544;2023-09-19T03:37:14;15.70;99.90
14097;DHT22;7125;48.106;11.544;2023-09-19T03:39:42;15.70;99.90
14097;DHT22;7125;48.106;11.544;2023-09-19T03:42:10;15.70;99.90
14097;DHT22;7125;48.106;11.544;2023-09-19T03:44:37;15.80;99.90
14097;DHT22;7125;48.106;11.544;2023-09-19T03:47:05;15.70;99.90
14097;DHT22;7125;48.106;11.544;2023-09-19T03:49:33;15.80;99.90
14097;DHT22;7125;48.106;11.544;2023-09-19T03:52:01;15.80;99.90
14097;DHT22;7125;48.106;11.544;2023-09-19T03:54:28;15.80;99.90
14097;DHT22;7125;48.106;11.544;2023-09-19T03:56:56;15.90;99.90
14097;DHT22;7125;48.106;11.544;2023-09-19T03:59:24;15.90;99.90
14097;DHT22;7125;48.106;11.544;2023-09-19T04:01:51;15.90;99.90
14097;DHT22;7125;48.106;11.544;2023-09-19T04:04:23;15.90;99.90
14097;DHT22;7125;48.106;11.544;2023-09-19T04:06:50;15.90;99.90
14097;DHT22;7125;48.106;11.544;2023-09-19T04:09:18;16.00;99.90
14097;DHT22;7125;48.106;11.544;2023-09-19T04:11:45;16.00;99.90
14097;DHT22;7125;48.106;11.544;2023-09-19T04:14:12;16.00;99.90
14097;DHT22;7125;48.106;11.544;2023-09-19T04:16:39;16.10;99.90
14097;DHT22;7125;48.106;11.544;2023-09-19T04:19:06;16.10;99.90
14097;DHT22;7125;48.106;11.544;2023-09-19T04:21:35;16.10;99.90
14097;DHT22;7125;48.106;11.544;2023-09-19T04:24:02;16.10;99.90
14097;DHT22;7125;48.106;11.544;2023-09-19T04:26:29;16.10;99.90
14097;DHT22;7125;48.106;11.544;2023-09-19T04:28:56;16.20;99.90
14097;DHT22;7125;48.106;11.544;2023-09-19T04:31:23;16.20;99.90
14097;DHT22;7125;48.106;11.544;2023-09-19T04:33:50;16.20;99.90
14097;DHT22;7125;48.106;11.544;2023-09-19T04:36:17;16.20;99.90
14097;DHT22;7125;48.106;11.544;2023-09-19T04:38:45;16.20;99.90
14097;DHT22;7125;48.106;11.544;2023-09-19T04:41:12;16.30;99.90
14097;DHT22;7125;48.106;11.544;2023-09-19T04:43:40;16.20;99.90
14097;DHT22;7125;48.106;11.544;2023-09-19T04:46:07;16.30;99.90
14097;DHT22;7125;48.106;11.544;2023-09-19T04:48:34;16.30;99.90
14097;DHT22;7125;48.106;11.544;2023-09-19T04:51:02;16.30;99.90
14097;DHT22;7125;48.106;11.544;2023-09-19T04:53:29;16.40;99.90
14097;DHT22;7125;48.106;11.544;2023-09-19T04:55:58;16.30;99.90
14097;DHT22;7125;48.106;11.544;2023-09-19T04:58:25;16.30;99.90
14097;DHT22;7125;48.106;11.544;2023-09-19T05:00:52;16.40;99.90
14097;DHT22;7125;48.106;11.544;2023-09-19T05:03:20;16.40;99.90
14097;DHT22;7125;48.106;11.544;2023-09-19T05:05:48;16.30;99.90
14097;DHT22;7125;48.106;11.544;2023-09-19T05:08:15;16.30;99.90
14097;DHT22;7125;48.106;11.544;2023-09-19T05:10:42;16.30;99.90
14097;DHT22;7125;48.106;11.544;2023-09-19T05:13:12;16.30;99.90
14097;DHT22;7125;48.106;11.544;2023-09-19T05:15:39;16.30;99.90
14097;DHT22;7125;48.106;11.544;2023-09-19T05:18:06;16.30;99.90
14097;DHT22;7125;48.106;11.544;2023-09-19T05:20:34;16.30;99.90
14097;DHT22;7125;48.106;11.544;2023-09-19T05:23:04;16.30;99.90
14097;DHT22;7125;48.106;11.544;2023-09-19T05:25:33;16.30;99.90
14097;DHT22;7125;48.106;11.544;2023-09-19T05:28:03;16.30;99.90
14097;DHT22;7125;48.106;11.544;2023-09-19T05:30:33;16.30;99.90
14097;DHT22;7125;48.106;11.544;2023-09-19T05:33:02;16.40;99.90
14097;DHT22;7125;48.106;11.544;2023-09-19T05:35:30;16.40;99.90
14097;DHT22;7125;48.106;11.544;2023-09-19T05:37:57;16.40;99.90
14097;DHT22;7125;48.106;11.544;2023-09-19T05:40:25;16.40;99.90
14097;DHT22;7125;48.106;11.544;2023-09-19T05:42:52;16.40;99.90
14097;DHT22;7125;48.106;11.544;2023-09-19T05:45:19;16.40;99.90
14097;DHT22;7125;48.106;11.544;2023-09-19T05:47:50;16.30;99.90
14097;DHT22;7125;48.106;11.544;2023-09-19T05:50:21;16.30;99.90
14097;DHT22;7125;48.106;11.544;2023-09-19T05:52:51;16.30;99.90
14097;DHT22;7125;48.106;11.544;2023-09-19T05:55:19;16.30;99.90
14097;DHT22;7125;48.106;11.544;2023-09-19T05:57:49;16.30;99.90
14097;DHT22;7125;48.106;11.544;2023-09-19T06:00:17;16.30;99.90
14097;DHT22;7125;48.106;11.544;2023-09-19T06:02:44;16.30;99.90
14097;DHT22;7125;48.106;11.544;2023-09-19T06:05:15;16.40;99.90
14097;DHT22;7125;48.106;11.544;2023-09-19T06:07:42;16.40;99.90
14097;DHT22;7125;48.106;11.544;2023-09-19T06:10:09;16.50;99.90
14097;DHT22;7125;48.106;11.544;2023-09-19T06:12:38;16.50;99.90
14097;DHT22;7125;48.106;11.544;2023-09-19T06:15:06;16.60;99.90
14097;DHT22;7125;48.106;11.544;2023-09-19T06:17:37;16.60;99.90
14097;DHT22;7125;48.106;11.544;2023-09-19T06:20:05;16.60;99.90
14097;DHT22;7125;48.106;11.544;2023-09-19T06:22:40;16.60;99.90
14097;DHT22;7125;48.106;11.544;2023-09-19T06:25:09;16.60;99.90
14097;DHT22;7125;48.106;11.544;2023-09-19T06:27:37;16.60;99.90
14097;DHT22;7125;48.106;11.544;2023-09-19T06:30:06;16.60;99.90
14097;DHT22;7125;48.106;11.544;2023-09-19T06:32:34;16.70;99.90
14097;DHT22;7125;48.106;11.544;2023-09-19T06:35:01;16.70;99.90
14097;DHT22;7125;48.106;11.544;2023-09-19T06:37:29;16.70;99.90
14097;DHT22;7125;48.106;11.544;2023-09-19T06:39:57;16.80;99.90
14097;DHT22;7125;48.106;11.544;2023-09-19T06:42:24;16.80;99.90
14097;DHT22;7125;48.106;11.544;2023-09-19T06:44:51;16.80;99.90
14097;DHT22;7125;48.106;11.544;2023-09-19T06:47:18;16.80;99.90
14097;DHT22;7125;48.106;11.544;2023-09-19T06:49:46;16.80;99.90
14097;DHT22;7125;48.106;11.544;2023-09-19T06:52:13;16.80;99.90
14097;DHT22;7125;48.106;11.544;2023-09-19T06:54:41;16.80;99.90
14097;DHT22;7125;48.106;11.544;2023-09-19T06:57:10;16.80;99.90
14097;DHT22;7125;48.106;11.544;2023-09-19T06:59:36;16.80;99.90
14097;DHT22;7125;48.106;11.544;2023-09-19T07:02:04;16.80;99.90
14097;DHT22;7125;48.106;11.544;2023-09-19T07:04:32;16.90;99.90
14097;DHT22;7125;48.106;11.544;2023-09-19T07:07:01;17.00;99.90
14097;DHT22;7125;48.106;11.544;2023-09-19T07:09:28;17.10;99.90
14097;DHT22;7125;48.106;11.544;2023-09-19T07:11:55;17.10;99.90
14097;DHT22;7125;48.106;11.544;2023-09-19T07:14:23;17.10;99.90
14097;DHT22;7125;48.106;11.544;2023-09-19T07:16:51;17.10;99.90
14097;DHT22;7125;48.106;11.544;2023-09-19T07:19:18;17.20;99.90
14097;DHT22;7125;48.106;11.544;2023-09-19T07:21:45;17.20;99.90
14097;DHT22;7125;48.106;11.544;2023-09-19T07:24:13;17.20;99.90
14097;DHT22;7125;48.106;11.544;2023-09-19T07:26:40;17.20;99.90
14097;DHT22;7125;48.106;11.544;2023-09-19T07:29:07;17.20;99.90
14097;DHT22;7125;48.106;11.544;2023-09-19T07:31:35;17.20;99.90
14097;DHT22;7125;48.106;11.544;2023-09-19T07:34:02;17.20;99.90
14097;DHT22;7125;48.106;11.544;2023-09-19T07:36:31;17.30;99.90
14097;DHT22;7125;48.106;11.544;2023-09-19T07:38:58;17.30;99.90
14097;DHT22;7125;48.106;11.544;2023-09-19T07:41:25;17.40;99.90
14097;DHT22;7125;48.106;11.544;2023-09-19T07:43:52;17.50;99.90
14097;DHT22;7125;48.106;11.544;2023-09-19T07:46:20;17.60;99.90
14097;DHT22;7125;48.106;11.544;2023-09-19T07:48:49;17.60;99.90
14097;DHT22;7125;48.106;11.544;2023-09-19T07:51:16;17.70;99.90
14097;DHT22;7125;48.106;11.544;2023-09-19T07:53:43;17.80;99.90
14097;DHT22;7125;48.106;11.544;2023-09-19T07:56:10;17.90;99.90
14097;DHT22;7125;48.106;11.544;2023-09-19T07:58:40;18.00;99.90
14097;DHT22;7125;48.106;11.544;2023-09-19T08:01:10;18.10;99.90
14097;DHT22;7125;48.106;11.544;2023-09-19T08:03:38;18.10;99.90
14097;DHT22;7125;48.106;11.544;2023-09-19T08:06:07;18.10;99.90
14097;DHT22;7125;48.106;11.544;2023-09-19T08:08:35;18.10;99.90
14097;DHT22;7125;48.106;11.544;2023-09-19T08:11:03;18.20;99.90
14097;DHT22;7125;48.106;11.544;2023-09-19T08:13:36;18.20;99.90
14097;DHT22;7125;48.106;11.544;2023-09-19T08:16:04;18.20;99.90
14097;DHT22;7125;48.106;11.544;2023-09-19T08:18:31;18.30;99.90
14097;DHT22;7125;48.106;11.544;2023-09-19T08:20:59;18.40;99.90
14097;DHT22;7125;48.106;11.544;2023-09-19T08:23:28;18.50;99.90
14097;DHT22;7125;48.106;11.544;2023-09-19T08:25:58;18.60;99.90
14097;DHT22;7125;48.106;11.544;2023-09-19T08:28:28;18.60;99.90
14097;DHT22;7125;48.106;11.544;2023-09-19T08:30:55;18.60;99.90
14097;DHT22;7125;48.106;11.544;2023-09-19T08:33:23;18.60;99.90
14097;DHT22;7125;48.106;11.544;2023-09-19T08:35:50;18.50;99.90
14097;DHT22;7125;48.106;11.544;2023-09-19T08:38:17;18.50;99.90
14097;DHT22;7125;48.106;11.544;2023-09-19T08:40:46;18.50;99.90
14097;DHT22;7125;48.106;11.544;2023-09-19T08:43:13;18.50;99.90
14097;DHT22;7125;48.106;11.544;2023-09-19T08:45:40;18.50;99.90
14097;DHT22;7125;48.106;11.544;2023-09-19T08:48:16;18.60;99.90
14097;DHT22;7125;48.106;11.544;2023-09-19T08:50:49;18.60;99.90
14097;DHT22;7125;48.106;11.544;2023-09-19T08:53:21;18.70;99.90
14097;DHT22;7125;48.106;11.544;2023-09-19T08:55:55;18.70;99.90
14097;DHT22;7125;48.106;11.544;2023-09-19T08:58:26;18.70;99.90
14097;DHT22;7125;48.106;11.544;2023-09-19T09:00:56;18.80;99.90
14097;DHT22;7125;48.106;11.544;2023-09-19T09:03:32;18.90;99.90
14097;DHT22;7125;48.106;11.544;2023-09-19T09:06:01;19.00;99.90
14097;DHT22;7125;48.106;11.544;2023-09-19T09:08:30;19.10;99.90
14097;DHT22;7125;48.106;11.544;2023-09-19T09:11:00;19.10;99.90
14097;DHT22;7125;48.106;11.544;2023-09-19T09:13:27;19.20;99.90
14097;DHT22;7125;48.106;11.544;2023-09-19T09:15:54;19.20;99.90
14097;DHT22;7125;48.106;11.544;2023-09-19T09:18:22;19.20;99.90
14097;DHT22;7125;48.106;11.544;2023-09-19T09:20:51;19.20;99.90
14097;DHT22;7125;48.106;11.544;2023-09-19T09:23:18;19.10;99.90
14097;DHT22;7125;48.106;11.544;2023-09-19T09:25:47;19.10;99.90
14097;DHT22;7125;48.106;11.544;2023-09-19T09:28:21;19.10;99.90
14097;DHT22;7125;48.106;11.544;2023-09-19T09:30:48;19.00;99.90
14097;DHT22;7125;48.106;11.544;2023-09-19T09:33:16;19.10;99.90
14097;DHT22;7125;48.106;11.544;2023-09-19T09:35:51;19.20;99.90
14097;DHT22;7125;48.106;11.544;2023-09-19T09:38:19;19.30;99.90
14097;DHT22;7125;48.106;11.544;2023-09-19T09:40:48;19.40;99.90
14097;DHT22;7125;48.106;11.544;2023-09-19T09:43:33;19.40;99.90
14097;DHT22;7125;48.106;11.544;2023-09-19T09:46:08;19.30;99.90
14097;DHT22;7125;48.106;11.544;2023-09-19T09:48:59;19.20;99.90
14097;DHT22;7125;48.106;11.544;2023-09-19T09:51:42;19.10;99.90
14097;DHT22;7125;48.106;11.544;2023-09-19T09:54:12;19.10;99.90
14097;DHT22;7125;48.106;11.544;2023-09-19T09:56:52;19.10;99.90
14097;DHT22;7125;48.106;11.544;2023-09-19T09:59:22;19.00;99.90
14097;DHT22;7125;48.106;11.544;2023-09-19T10:01:50;19.00;99.90
14097;DHT22;7125;48.106;11.544;2023-09-19T10:04:27;19.00;99.90
14097;DHT22;7125;48.106;11.544;2023-09-19T10:06:57;19.20;99.90
14097;DHT22;7125;48.106;11.544;2023-09-19T10:09:36;19.40;99.90
14097;DHT22;7125;48.106;11.544;2023-09-19T10:12:13;19.50;99.90
14097;DHT22;7125;48.106;11.544;2023-09-19T10:14:45;19.60;99.90
14097;DHT22;7125;48.106;11.544;2023-09-19T10:17:17;19.60;99.90
14097;DHT22;7125;48.106;11.544;2023-09-19T10:19:51;19.70;99.90
14097;DHT22;7125;48.106;11.544;2023-09-19T10:22:23;19.70;99.90
14097;DHT22;7125;48.106;11.544;2023-09-19T10:24:53;19.80;99.90
14097;DHT22;7125;48.106;11.544;2023-09-19T10:27:23;19.80;99.90
14097;DHT22;7125;48.106;11.544;2023-09-19T10:29:54;19.80;99.90
14097;DHT22;7125;48.106;11.544;2023-09-19T10:32:27;19.90;99.90
14097;DHT22;7125;48.106;11.544;2023-09-19T10:34:55;20.10;99.90
14097;DHT22;7125;48.106;11.544;2023-09-19T10:37:35;20.20;99.90
14097;DHT22;7125;48.106;11.544;2023-09-19T10:40:06;20.30;99.90
14097;DHT22;7125;48.106;11.544;2023-09-19T10:42:38;20.50;99.90
14097;DHT22;7125;48.106;11.544;2023-09-19T10:45:08;20.50;99.90
14097;DHT22;7125;48.106;11.544;2023-09-19T10:47:39;20.60;99.90
14097;DHT22;7125;48.106;11.544;2023-09-19T10:50:06;20.70;99.90
14097;DHT22;7125;48.106;11.544;2023-09-19T10:52:39;20.70;99.90
14097;DHT22;7125;48.106;11.544;2023-09-19T10:55:08;20.70;99.90
14097;DHT22;7125;48.106;11.544;2023-09-19T10:57:37;20.80;99.90
14097;DHT22;7125;48.106;11.544;2023-09-19T11:00:07;20.90;99.90
14097;DHT22;7125;48.106;11.544;2023-09-19T11:03:18;21.00;99.90
14097;DHT22;7125;48.106;11.544;2023-09-19T11:06:01;21.10;99.90
14097;DHT22;7125;48.106;11.544;2023-09-19T11:08:31;21.20;99.90
14097;DHT22;7125;48.106;11.544;2023-09-19T11:11:45;21.30;99.90
14097;DHT22;7125;48.106;11.544;2023-09-19T11:14:41;21.30;99.90
14097;DHT22;7125;48.106;11.544;2023-09-19T11:17:32;21.40;99.90
14097;DHT22;7125;48.106;11.544;2023-09-19T11:20:22;21.40;99.90
14097;DHT22;7125;48.106;11.544;2023-09-19T11:23:20;21.40;99.90
14097;DHT22;7125;48.106;11.544;2023-09-19T11:25:55;21.50;99.90
14097;DHT22;7125;48.106;11.544;2023-09-19T11:28:30;21.60;99.90
14097;DHT22;7125;48.106;11.544;2023-09-19T11:30:57;21.60;99.90
14097;DHT22;7125;48.106;11.544;2023-09-19T11:33:27;21.60;99.90
14097;DHT22;7125;48.106;11.544;2023-09-19T11:36:02;21.70;99.90
14097;DHT22;7125;48.106;11.544;2023-09-19T11:38:59;21.70;99.90
14097;DHT22;7125;48.106;11.544;2023-09-19T11:41:38;21.70;99.40
14097;DHT22;7125;48.106;11.544;2023-09-19T11:44:33;21.60;99.50
14097;DHT22;7125;48.106;11.544;2023-09-19T11:47:02;21.60;99.40
14097;DHT22;7125;48.106;11.544;2023-09-19T11:49:33;21.60;99.80
14097;DHT22;7125;48.106;11.544;2023-09-19T11:52:03;21.60;99.50
14097;DHT22;7125;48.106;11.544;2023-09-19T11:54:35;21.60;98.70
14097;DHT22;7125;48.106;11.544;2023-09-19T11:57:06;21.60;98.90
14097;DHT22;7125;48.106;11.544;2023-09-19T11:59:39;21.60;97.90
14097;DHT22;7125;48.106;11.544;2023-09-19T12:02:06;21.70;98.10
14097;DHT22;7125;48.106;11.544;2023-09-19T12:04:36;21.70;97.70
14097;DHT22;7125;48.106;11.544;2023-09-19T12:07:08;21.70;98.40
14097;DHT22;7125;48.106;11.544;2023-09-19T12:09:41;21.70;98.80
14097;DHT22;7125;48.106;11.544;2023-09-19T12:12:10;21.70;98.10
14097;DHT22;7125;48.106;11.544;2023-09-19T12:14:41;21.70;97.90
14097;DHT22;7125;48.106;11.544;2023-09-19T12:17:09;21.80;98.50
14097;DHT22;7125;48.106;11.544;2023-09-19T12:19:37;21.80;97.20
14097;DHT22;7125;48.106;11.544;2023-09-19T12:22:04;21.80;98.40
14097;DHT22;7125;48.106;11.544;2023-09-19T12:24:32;21.80;98.00
14097;DHT22;7125;48.106;11.544;2023-09-19T12:27:02;21.90;98.70
14097;DHT22;7125;48.106;11.544;2023-09-19T12:29:32;22.00;98.50
14097;DHT22;7125;48.106;11.544;2023-09-19T12:32:11;22.00;98.30
14097;DHT22;7125;48.106;11.544;2023-09-19T12:34:41;22.10;97.90
14097;DHT22;7125;48.106;11.544;2023-09-19T12:37:10;22.20;96.80
14097;DHT22;7125;48.106;11.544;2023-09-19T12:39:45;22.30;96.60
14097;DHT22;7125;48.106;11.544;2023-09-19T12:42:16;22.40;97.30
14097;DHT22;7125;48.106;11.544;2023-09-19T12:44:44;22.40;95.50
14097;DHT22;7125;48.106;11.544;2023-09-19T12:47:13;22.40;96.30
14097;DHT22;7125;48.106;11.544;2023-09-19T12:50:09;22.30;96.60
14097;DHT22;7125;48.106;11.544;2023-09-19T12:52:42;22.30;96.50
14097;DHT22;7125;48.106;11.544;2023-09-19T12:55:20;22.40;96.70
14097;DHT22;7125;48.106;11.544;2023-09-19T12:58:07;22.40;97.10
14097;DHT22;7125;48.106;11.544;2023-09-19T13:00:36;22.50;97.60
14097;DHT22;7125;48.106;11.544;2023-09-19T13:03:12;22.60;97.40
14097;DHT22;7125;48.106;11.544;2023-09-19T13:06:02;22.70;97.10
14097;DHT22;7125;48.106;11.544;2023-09-19T13:08:31;22.80;96.70
14097;DHT22;7125;48.106;11.544;2023-09-19T13:11:07;22.80;95.80
14097;DHT22;7125;48.106;11.544;2023-09-19T13:13:37;22.80;95.50
14097;DHT22;7125;48.106;11.544;2023-09-19T13:16:04;22.80;95.30
14097;DHT22;7125;48.106;11.544;2023-09-19T13:18:47;22.80;96.20
14097;DHT22;7125;48.106;11.544;2023-09-19T13:21:27;22.80;96.00
14097;DHT22;7125;48.106;11.544;2023-09-19T13:23:55;22.80;94.70
14097;DHT22;7125;48.106;11.544;2023-09-19T13:26:25;22.70;95.40
14097;DHT22;7125;48.106;11.544;2023-09-19T13:28:53;22.70;95.30
14097;DHT22;7125;48.106;11.544;2023-09-19T13:31:20;22.80;94.90
14097;DHT22;7125;48.106;11.544;2023-09-19T13:33:48;22.70;94.30
14097;DHT22;7125;48.106;11.544;2023-09-19T13:36:23;22.70;95.40
14097;DHT22;7125;48.106;11.544;2023-09-19T13:38:50;22.70;95.80
14097;DHT22;7125;48.106;11.544;2023-09-19T13:41:18;22.70;97.40
14097;DHT22;7125;48.106;11.544;2023-09-19T13:43:45;22.90;96.50
14097;DHT22;7125;48.106;11.544;2023-09-19T13:46:13;23.00;95.80
14097;DHT22;7125;48.106;11.544;2023-09-19T13:48:43;23.00;94.20
14097;DHT22;7125;48.106;11.544;2023-09-19T13:51:11;23.10;93.70
14097;DHT22;7125;48.106;11.544;2023-09-19T13:53:41;23.10;91.90
14097;DHT22;7125;48.106;11.544;2023-09-19T13:56:08;23.20;93.50
14097;DHT22;7125;48.106;11.544;2023-09-19T13:58:37;23.10;93.50
14097;DHT22;7125;48.106;11.544;2023-09-19T14:01:04;23.20;92.50
14097;DHT22;7125;48.106;11.544;2023-09-19T14:03:31;23.20;93.50
14097;DHT22;7125;48.106;11.544;2023-09-19T14:05:58;23.10;93.10
14097;DHT22;7125;48.106;11.544;2023-09-19T14:08:25;23.00;93.40
14097;DHT22;7125;48.106;11.544;2023-09-19T14:10:58;22.90;93.30
14097;DHT22;7125;48.106;11.544;2023-09-19T14:13:26;22.90;93.20
14097;DHT22;7125;48.106;11.544;2023-09-19T14:15:56;22.90;93.60
14097;DHT22;7125;48.106;11.544;2023-09-19T14:18:23;22.90;94.10
14097;DHT22;7125;48.106;11.544;2023-09-19T14:20:50;22.90;93.50
14097;DHT22;7125;48.106;11.544;2023-09-19T14:23:18;22.80;92.90
14097;DHT22;7125;48.106;11.544;2023-09-19T14:25:46;22.80;93.70
14097;DHT22;7125;48.106;11.544;2023-09-19T14:28:14;22.90;94.00
14097;DHT22;7125;48.106;11.544;2023-09-19T14:30:41;22.90;94.00
14097;DHT22;7125;48.106;11.544;2023-09-19T14:33:08;23.00;93.30
14097;DHT22;7125;48.106;11.544;2023-09-19T14:35:37;23.10;93.10
14097;DHT22;7125;48.106;11.544;2023-09-19T14:38:06;23.10;92.90
14097;DHT22;7125;48.106;11.544;2023-09-19T14:40:33;23.00;93.10
14097;DHT22;7125;48.106;11.544;2023-09-19T14:43:02;23.00;92.90
14097;DHT22;7125;48.106;11.544;2023-09-19T14:45:31;23.00;93.70
14097;DHT22;7125;48.106;11.544;2023-09-19T14:47:58;23.00;93.50
14097;DHT22;7125;48.106;11.544;2023-09-19T14:50:25;23.00;93.60
14097;DHT22;7125;48.106;11.544;2023-09-19T14:52:52;23.00;92.70
14097;DHT22;7125;48.106;11.544;2023-09-19T14:55:19;23.00;93.00
14097;DHT22;7125;48.106;11.544;2023-09-19T14:57:49;23.00;93.90
14097;DHT22;7125;48.106;11.544;2023-09-19T15:00:19;23.00;93.40
14097;DHT22;7125;48.106;11.544;2023-09-19T15:02:50;23.10;92.60
14097;DHT22;7125;48.106;11.544;2023-09-19T15:05:19;23.10;93.00
14097;DHT22;7125;48.106;11.544;2023-09-19T15:07:46;23.10;92.90
14097;DHT22;7125;48.106;11.544;2023-09-19T15:10:14;23.10;92.10
14097;DHT22;7125;48.106;11.544;2023-09-19T15:12:42;23.00;91.60
14097;DHT22;7125;48.106;11.544;2023-09-19T15:15:10;23.00;91.50
14097;DHT22;7125;48.106;11.544;2023-09-19T15:17:38;22.90;92.00
14097;DHT22;7125;48.106;11.544;2023-09-19T15:20:09;22.90;92.00
14097;DHT22;7125;48.106;11.544;2023-09-19T15:22:39;22.90;92.30
14097;DHT22;7125;48.106;11.544;2023-09-19T15:25:07;22.90;92.20
14097;DHT22;7125;48.106;11.544;2023-09-19T15:27:35;22.80;92.60
14097;DHT22;7125;48.106;11.544;2023-09-19T15:30:05;22.80;91.90
14097;DHT22;7125;48.106;11.544;2023-09-19T15:32:34;22.80;92.40
14097;DHT22;7125;48.106;11.544;2023-09-19T15:43:38;22.50;93.60
14097;DHT22;7125;48.106;11.544;2023-09-19T15:46:05;22.30;93.10
14097;DHT22;7125;48.106;11.544;2023-09-19T15:48:32;22.30;93.50
14097;DHT22;7125;48.106;11.544;2023-09-19T15:51:03;22.20;94.00
14097;DHT22;7125;48.106;11.544;2023-09-19T15:53:43;22.00;94.10
14097;DHT22;7125;48.106;11.544;2023-09-19T15:56:11;21.90;93.60
14097;DHT22;7125;48.106;11.544;2023-09-19T15:58:43;21.70;93.90